Hutchins, Vermont
Current Conditions -  °F | °C
As of 6:55 AM on Friday 28 Nov 2014 (Local Time) from KEFK Reporting Station
Light Snow Light Snow  
Wind Chill: -6°   Ceiling: 900
Heat Index: -6°   Visibility: 1.7mi
Dew Point: -7°   Wind: 0mph
Humidity: 93%   Direction: NA
Pressure: 30.02"   Gusts: NA
Location:  44.8557°N, 72.6016°W
Report Text: KEFK 281155Z AUTO 00000KT 1 3/4SM -SN OVC009 M06/M07 A3002 RMK AO2 T10621071 11060 21066
Loading
Personal Weather Stations






























Interactive Weather Map New forecast layout! Learn more

10-Day Weather Forecast

Advertisements
Track Severe Weather on mobile